createdAt,value
2018-07-04T00:00:45.324Z,0.00
2018-07-04T00:01:45.416Z,0.00
2018-07-04T00:02:45.437Z,0.00
2018-07-04T00:03:45.457Z,0.00
2018-07-04T00:04:47.014Z,0.00
2018-07-04T00:05:45.524Z,0.00
2018-07-04T00:06:45.650Z,0.00
2018-07-04T00:07:45.627Z,0.00
2018-07-04T00:08:45.667Z,0.00
2018-07-04T00:09:45.729Z,0.00
2018-07-04T00:10:45.783Z,0.00
2018-07-04T00:11:45.808Z,0.00
2018-07-04T00:12:45.882Z,0.00
2018-07-04T00:13:45.905Z,0.00
2018-07-04T00:14:45.923Z,0.00
2018-07-04T00:15:45.989Z,0.00
2018-07-04T00:16:46.004Z,0.00
2018-07-04T00:17:46.080Z,0.00
2018-07-04T00:18:46.097Z,0.00
2018-07-04T00:19:46.139Z,0.00
2018-07-04T00:20:46.216Z,0.00
2018-07-04T00:21:46.216Z,0.00
2018-07-04T00:22:46.318Z,0.00
2018-07-04T00:23:46.351Z,0.00
2018-07-04T00:24:46.364Z,0.00
2018-07-04T00:25:46.483Z,0.00
2018-07-04T00:26:46.455Z,0.00
2018-07-04T00:27:46.475Z,0.00
2018-07-04T00:28:46.562Z,0.00
2018-07-04T00:29:46.562Z,0.00
2018-07-04T00:30:46.622Z,0.00
2018-07-04T00:31:46.682Z,0.00
2018-07-04T00:32:46.730Z,0.00
2018-07-04T00:33:46.766Z,0.00
2018-07-04T00:34:46.799Z,0.00
2018-07-04T00:35:46.828Z,0.00
2018-07-04T00:36:46.900Z,0.00
2018-07-04T00:37:46.962Z,0.00
2018-07-04T00:38:46.971Z,0.00
2018-07-04T00:39:47.021Z,0.00
2018-07-04T00:40:47.395Z,0.00
2018-07-04T00:41:47.108Z,0.00
2018-07-04T00:42:47.145Z,0.00
2018-07-04T00:43:47.168Z,0.00
2018-07-04T00:44:47.250Z,0.00
2018-07-04T00:45:47.293Z,0.00
2018-07-04T00:46:47.315Z,0.00
2018-07-04T00:47:47.365Z,0.00
2018-07-04T00:48:47.416Z,0.00
2018-07-04T00:49:47.441Z,0.00
2018-07-04T00:50:47.536Z,0.00
2018-07-04T00:51:47.578Z,0.00
2018-07-04T00:52:47.586Z,0.00
2018-07-04T00:53:47.600Z,0.00
2018-07-04T00:54:47.649Z,0.00
2018-07-04T00:55:47.713Z,0.00
2018-07-04T00:56:47.785Z,0.00
2018-07-04T00:57:47.831Z,0.00
2018-07-04T00:58:47.827Z,0.00
2018-07-04T00:59:47.883Z,0.00
2018-07-04T01:00:47.929Z,0.00
2018-07-04T01:01:47.984Z,0.00
2018-07-04T01:02:47.988Z,0.00
2018-07-04T01:03:48.100Z,0.00
2018-07-04T01:04:48.128Z,0.00
2018-07-04T01:05:48.130Z,0.00
2018-07-04T01:06:48.217Z,0.00
2018-07-04T01:07:48.231Z,0.00
2018-07-04T01:08:48.265Z,0.00
2018-07-04T01:09:48.327Z,0.00
2018-07-04T01:10:48.421Z,0.00
2018-07-04T01:11:48.397Z,0.00
2018-07-04T01:12:48.455Z,0.00
2018-07-04T01:13:48.504Z,0.00
2018-07-04T01:14:48.545Z,0.00
2018-07-04T01:15:48.562Z,0.00
2018-07-04T01:16:48.611Z,0.00
2018-07-04T01:17:48.648Z,0.00
2018-07-04T01:18:48.704Z,0.00
2018-07-04T01:19:48.760Z,0.00
2018-07-04T01:20:48.773Z,0.00
2018-07-04T01:21:48.851Z,0.00
2018-07-04T01:22:48.892Z,0.00
2018-07-04T01:23:48.935Z,0.00
2018-07-04T01:24:48.972Z,0.00
2018-07-04T01:25:49.014Z,0.00
2018-07-04T01:26:49.037Z,0.00
2018-07-04T01:27:49.087Z,0.00
2018-07-04T01:28:49.129Z,0.00
2018-07-04T01:29:49.198Z,0.00
2018-07-04T01:30:49.221Z,0.00
2018-07-04T01:31:49.266Z,0.00
2018-07-04T01:32:49.324Z,0.00
2018-07-04T01:33:49.351Z,0.00
2018-07-04T01:34:49.631Z,0.00
2018-07-04T01:35:49.499Z,0.00
2018-07-04T01:36:49.506Z,0.00
2018-07-04T01:37:49.580Z,0.00
2018-07-04T01:38:49.579Z,0.00
2018-07-04T01:39:49.621Z,0.00
2018-07-04T01:40:49.642Z,0.00
2018-07-04T01:41:49.733Z,0.00
2018-07-04T01:42:49.752Z,0.00
2018-07-04T01:43:49.785Z,0.00
2018-07-04T01:44:49.833Z,0.00
2018-07-04T01:45:49.921Z,0.00
2018-07-04T01:46:49.961Z,0.00
2018-07-04T01:47:49.962Z,0.00
2018-07-04T01:48:49.990Z,0.00
2018-07-04T01:49:50.025Z,0.00
2018-07-04T01:50:50.146Z,0.00
2018-07-04T01:51:50.141Z,0.00
2018-07-04T01:52:50.212Z,0.00
2018-07-04T01:53:50.214Z,0.00
2018-07-04T01:54:50.278Z,0.00
2018-07-04T01:55:50.307Z,0.00
2018-07-04T01:56:50.604Z,0.00
2018-07-04T01:57:50.391Z,0.00
2018-07-04T01:58:50.426Z,0.00
2018-07-04T01:59:50.489Z,0.00
2018-07-04T02:00:50.498Z,0.00
2018-07-04T02:01:50.555Z,0.00
2018-07-04T02:02:50.592Z,0.00
2018-07-04T02:03:50.655Z,0.00
2018-07-04T02:04:50.699Z,0.00
2018-07-04T02:05:50.736Z,0.00
2018-07-04T02:06:50.771Z,0.00
2018-07-04T02:07:50.850Z,0.00
2018-07-04T02:08:50.878Z,0.00
2018-07-04T02:09:50.921Z,0.00
2018-07-04T02:10:50.998Z,0.00
2018-07-04T02:11:50.983Z,0.00
2018-07-04T02:12:51.031Z,0.00
2018-07-04T02:13:51.083Z,0.00
2018-07-04T02:14:51.115Z,0.00
2018-07-04T02:15:51.165Z,0.00
2018-07-04T02:16:51.201Z,0.00
2018-07-04T02:17:51.258Z,0.00
2018-07-04T02:18:51.282Z,0.00
2018-07-04T02:19:51.536Z,0.00
2018-07-04T02:20:51.423Z,0.00
2018-07-04T02:21:51.455Z,0.00
2018-07-04T02:22:51.485Z,0.00
2018-07-04T02:23:51.547Z,0.00
2018-07-04T02:24:51.576Z,0.00
2018-07-04T02:25:51.864Z,0.00
2018-07-04T02:26:51.672Z,0.00
2018-07-04T02:27:51.703Z,0.00
2018-07-04T02:28:51.730Z,0.00
2018-07-04T02:29:51.789Z,0.00
2018-07-04T02:30:51.813Z,0.00
2018-07-04T02:31:51.869Z,0.00
2018-07-04T02:32:51.902Z,0.00
2018-07-04T02:33:51.953Z,0.00
2018-07-04T02:34:51.989Z,0.00
2018-07-04T02:35:52.013Z,0.00
2018-07-04T02:36:52.079Z,0.00
2018-07-04T02:37:52.103Z,0.00
2018-07-04T02:38:52.163Z,0.00
2018-07-04T02:39:52.219Z,0.00
2018-07-04T02:40:52.311Z,0.00
2018-07-04T02:41:52.314Z,0.00
2018-07-04T02:42:52.548Z,0.00
2018-07-04T02:43:52.390Z,0.00
2018-07-04T02:44:52.432Z,0.00
2018-07-04T02:45:52.475Z,0.00
2018-07-04T02:46:52.516Z,0.00
2018-07-04T02:47:52.552Z,0.00
2018-07-04T02:48:52.582Z,0.00
2018-07-04T02:49:52.632Z,0.00
2018-07-04T02:50:52.704Z,0.00
2018-07-04T02:51:52.738Z,0.00
2018-07-04T02:52:52.774Z,0.00
2018-07-04T02:53:52.994Z,0.00
2018-07-04T02:54:52.861Z,0.00
2018-07-04T02:55:52.885Z,0.00
2018-07-04T02:56:52.929Z,0.00
2018-07-04T02:57:52.972Z,0.00
2018-07-04T02:58:53.008Z,0.00
2018-07-04T02:59:53.072Z,0.00
2018-07-04T03:00:53.116Z,0.00
2018-07-04T03:01:53.149Z,0.00
2018-07-04T03:02:53.224Z,0.00
2018-07-04T03:03:53.241Z,0.00
2018-07-04T03:04:53.343Z,0.00
2018-07-04T03:05:53.326Z,0.00
2018-07-04T03:06:53.358Z,0.00
2018-07-04T03:07:53.413Z,0.00
2018-07-04T03:08:53.491Z,0.00
2018-07-04T03:09:53.502Z,0.00
2018-07-04T03:10:53.532Z,0.00
2018-07-04T03:11:53.597Z,0.00
2018-07-04T03:12:53.601Z,0.00
2018-07-04T03:13:53.703Z,0.00
2018-07-04T03:14:53.908Z,0.00
2018-07-04T03:15:53.778Z,0.00
2018-07-04T03:16:53.809Z,0.00
2018-07-04T03:17:53.849Z,0.00
2018-07-04T03:18:53.902Z,0.00
2018-07-04T03:19:53.918Z,0.00
2018-07-04T03:20:53.969Z,0.00
2018-07-04T03:21:54.009Z,0.00
2018-07-04T03:22:54.062Z,0.00
2018-07-04T03:23:54.084Z,0.00
2018-07-04T03:24:54.151Z,0.00
2018-07-04T03:25:54.191Z,0.00
2018-07-04T03:26:54.237Z,0.00
2018-07-04T03:27:54.255Z,0.00
2018-07-04T03:28:54.313Z,0.00
2018-07-04T03:29:54.362Z,0.00
2018-07-04T03:30:54.391Z,0.00
2018-07-04T03:31:54.461Z,0.00
2018-07-04T03:32:54.532Z,0.00
2018-07-04T03:33:54.525Z,0.00
2018-07-04T03:34:54.570Z,0.00
2018-07-04T03:35:54.626Z,0.00
2018-07-04T03:36:54.678Z,0.00
2018-07-04T03:37:54.728Z,0.00
2018-07-04T03:38:54.761Z,0.00
2018-07-04T03:39:54.773Z,0.00
2018-07-04T03:40:54.852Z,0.00
2018-07-04T03:41:55.061Z,0.00
2018-07-04T03:42:54.979Z,0.00
2018-07-04T03:43:54.975Z,0.00
2018-07-04T03:44:55.006Z,0.00
2018-07-04T03:45:55.033Z,0.00
2018-07-04T03:46:55.101Z,0.00
2018-07-04T03:47:55.152Z,0.00
2018-07-04T03:48:55.193Z,0.00
2018-07-04T03:49:55.271Z,0.00
2018-07-04T03:50:55.280Z,0.00
2018-07-04T03:51:55.314Z,0.00
2018-07-04T03:52:55.355Z,0.00
2018-07-04T03:53:55.450Z,0.00
2018-07-04T03:54:55.429Z,0.00
2018-07-04T03:55:55.506Z,0.00
2018-07-04T03:56:55.530Z,0.00
2018-07-04T03:57:55.572Z,0.00
2018-07-04T03:58:55.614Z,0.00
2018-07-04T03:59:55.642Z,0.00
2018-07-04T04:00:55.747Z,0.00
2018-07-04T04:01:55.749Z,0.00
2018-07-04T04:02:55.845Z,0.00
2018-07-04T04:03:55.844Z,0.00
2018-07-04T04:04:55.888Z,0.00
2018-07-04T04:05:55.913Z,0.00
2018-07-04T04:06:55.947Z,0.00
2018-07-04T04:07:55.987Z,0.00
2018-07-04T04:08:56.045Z,0.00
2018-07-04T04:09:56.094Z,0.00
2018-07-04T04:10:56.126Z,0.00
2018-07-04T04:11:56.171Z,0.00
2018-07-04T04:12:56.222Z,0.00
2018-07-04T04:13:56.279Z,0.00
2018-07-04T04:14:56.308Z,0.00
2018-07-04T04:15:56.383Z,0.00
2018-07-04T04:16:56.608Z,0.00
2018-07-04T04:17:56.432Z,0.00
2018-07-04T04:18:56.489Z,0.00
2018-07-04T04:19:56.570Z,0.00
2018-07-04T04:20:56.580Z,0.00
2018-07-04T04:21:56.615Z,0.00
2018-07-04T04:22:56.643Z,0.00
2018-07-04T04:23:56.698Z,0.00
2018-07-04T04:24:56.737Z,0.00
2018-07-04T04:25:56.789Z,0.00
2018-07-04T04:26:56.879Z,0.00
2018-07-04T04:27:57.077Z,0.00
2018-07-04T04:28:56.909Z,0.00
2018-07-04T04:29:56.970Z,0.00
2018-07-04T04:30:56.991Z,0.00
2018-07-04T04:31:57.021Z,0.00
2018-07-04T04:32:57.102Z,0.00
2018-07-04T04:33:57.246Z,0.00
2018-07-04T04:34:57.182Z,0.00
2018-07-04T04:35:57.227Z,0.00
2018-07-04T04:36:57.250Z,0.00
2018-07-04T04:37:57.314Z,0.00
2018-07-04T04:38:57.547Z,0.00
2018-07-04T04:39:57.374Z,0.00
2018-07-04T04:40:57.450Z,0.00
2018-07-04T04:41:57.484Z,0.00
2018-07-04T04:42:57.522Z,0.00
2018-07-04T04:43:57.573Z,0.00
2018-07-04T04:44:57.599Z,0.00
2018-07-04T04:45:57.651Z,0.00
2018-07-04T04:46:57.692Z,0.00
2018-07-04T04:47:57.758Z,0.00
2018-07-04T04:48:57.786Z,0.00
2018-07-04T04:49:57.824Z,0.00
2018-07-04T04:50:57.858Z,0.00
2018-07-04T04:51:57.907Z,0.00
2018-07-04T04:52:57.939Z,0.00
2018-07-04T04:53:57.979Z,0.00
2018-07-04T04:54:58.048Z,0.00
2018-07-04T04:55:58.073Z,0.00
2018-07-04T04:56:58.172Z,0.00
2018-07-04T04:57:58.162Z,0.00
2018-07-04T04:58:58.209Z,0.00
2018-07-04T04:59:58.273Z,0.00
2018-07-04T05:00:58.319Z,0.00
2018-07-04T05:01:58.345Z,0.00
2018-07-04T05:02:58.378Z,0.00
2018-07-04T05:03:58.427Z,0.00
2018-07-04T05:04:58.459Z,0.00
2018-07-04T05:05:58.517Z,0.00
2018-07-04T05:06:58.569Z,0.00
2018-07-04T05:07:58.596Z,0.00
2018-07-04T05:08:58.640Z,0.00
2018-07-04T05:09:58.674Z,0.00
2018-07-04T05:10:58.738Z,0.00
2018-07-04T05:11:58.883Z,0.00
2018-07-04T05:12:58.792Z,0.00
2018-07-04T05:13:58.853Z,0.00
2018-07-04T05:14:58.900Z,0.00
2018-07-04T05:15:58.939Z,0.00
2018-07-04T05:16:59.005Z,0.00
2018-07-04T05:17:59.037Z,0.00
2018-07-04T05:18:59.089Z,0.00
2018-07-04T05:19:59.104Z,0.00
2018-07-04T05:20:59.171Z,0.00
2018-07-04T05:21:59.259Z,0.00
2018-07-04T05:22:59.253Z,0.00
2018-07-04T05:23:59.271Z,0.00
2018-07-04T05:24:59.333Z,0.00
2018-07-04T05:25:59.377Z,0.00
2018-07-04T05:26:59.534Z,0.00
2018-07-04T05:27:59.478Z,0.00
2018-07-04T05:28:59.538Z,0.00
2018-07-04T05:29:59.581Z,0.00
2018-07-04T05:30:59.619Z,0.00
2018-07-04T05:31:59.646Z,0.00
2018-07-04T05:32:59.689Z,0.00
2018-07-04T05:33:59.713Z,0.00
2018-07-04T05:34:59.799Z,0.00
2018-07-04T05:35:59.825Z,0.00
2018-07-04T05:36:59.878Z,0.00
2018-07-04T05:37:59.892Z,0.00
2018-07-04T05:38:59.968Z,0.00
2018-07-04T05:39:59.986Z,0.00
2018-07-04T05:41:00.028Z,0.00
2018-07-04T05:42:00.283Z,0.00
2018-07-04T05:43:00.125Z,0.00
2018-07-04T05:44:00.161Z,0.00
2018-07-04T05:45:00.226Z,0.00
2018-07-04T05:46:00.264Z,0.00
2018-07-04T05:47:00.291Z,0.00
2018-07-04T05:48:00.381Z,0.00
2018-07-04T05:49:00.376Z,0.00
2018-07-04T05:50:00.446Z,0.00
2018-07-04T05:51:00.477Z,0.00
2018-07-04T05:52:00.533Z,0.00
2018-07-04T05:53:00.544Z,0.00
2018-07-04T05:54:00.816Z,0.00
2018-07-04T05:55:00.655Z,0.00
2018-07-04T05:56:00.682Z,0.00
2018-07-04T05:57:00.747Z,0.00
2018-07-04T05:58:00.766Z,0.00
2018-07-04T05:59:00.826Z,0.00
2018-07-04T06:00:00.902Z,0.00
2018-07-04T06:01:00.918Z,0.00
2018-07-04T06:02:00.952Z,0.00
2018-07-04T06:03:00.990Z,0.00
2018-07-04T06:04:01.032Z,0.00
2018-07-04T06:05:01.086Z,0.00
2018-07-04T06:06:01.305Z,0.00
2018-07-04T06:07:01.158Z,0.00
2018-07-04T06:08:01.206Z,0.00
2018-07-04T06:09:01.292Z,0.00
2018-07-04T06:10:01.283Z,0.00
2018-07-04T06:11:01.317Z,0.00
2018-07-04T06:12:01.400Z,0.00
2018-07-04T06:13:01.444Z,0.00
2018-07-04T06:14:01.471Z,0.00
2018-07-04T06:15:01.561Z,0.00
2018-07-04T06:16:01.548Z,0.00
2018-07-04T06:17:01.618Z,0.00
2018-07-04T06:18:01.639Z,0.00
2018-07-04T06:19:01.680Z,0.00
2018-07-04T06:20:01.733Z,0.00
2018-07-04T06:21:01.823Z,0.00
2018-07-04T06:22:02.006Z,0.00
2018-07-04T06:23:01.852Z,0.00
2018-07-04T06:24:01.906Z,0.00
2018-07-04T06:25:01.950Z,0.00
2018-07-04T06:26:01.993Z,0.00
2018-07-04T06:27:02.025Z,0.00
2018-07-04T06:28:02.083Z,0.00
2018-07-04T06:29:02.101Z,0.00
2018-07-04T06:30:02.153Z,0.00
2018-07-04T06:31:02.240Z,0.00
2018-07-04T06:32:02.223Z,0.00
2018-07-04T06:33:02.298Z,0.00
2018-07-04T06:34:02.316Z,0.00
2018-07-04T06:35:02.362Z,0.00
2018-07-04T06:36:02.386Z,0.00
2018-07-04T06:37:02.473Z,0.00
2018-07-04T06:38:02.713Z,0.00
2018-07-04T06:39:02.638Z,0.00
2018-07-04T06:40:02.584Z,0.00
2018-07-04T06:41:02.612Z,0.00
2018-07-04T06:42:02.680Z,0.00
2018-07-04T06:43:02.702Z,0.00
2018-07-04T06:44:02.769Z,0.00
2018-07-04T06:45:02.811Z,0.00
2018-07-04T06:46:02.853Z,0.00
2018-07-04T06:47:02.929Z,0.00
2018-07-04T06:48:02.916Z,0.00
2018-07-04T06:49:03.230Z,0.00
2018-07-04T06:50:03.010Z,0.00
2018-07-04T06:51:03.035Z,0.00
2018-07-04T06:52:03.104Z,0.00
2018-07-04T06:53:03.165Z,0.00
2018-07-04T06:54:03.185Z,0.00
2018-07-04T06:55:03.234Z,0.00
2018-07-04T06:56:03.311Z,0.00
2018-07-04T06:57:03.314Z,0.00
2018-07-04T06:58:03.348Z,0.00
2018-07-04T06:59:03.415Z,0.00
2018-07-04T07:00:03.710Z,0.00
2018-07-04T07:01:03.495Z,0.00
2018-07-04T07:02:03.535Z,0.00
2018-07-04T07:03:03.572Z,0.00
2018-07-04T07:04:03.608Z,0.00
2018-07-04T07:05:03.680Z,0.00
2018-07-04T07:06:03.689Z,0.00
2018-07-04T07:07:03.730Z,0.00
2018-07-04T07:08:03.849Z,0.00
2018-07-04T07:09:03.822Z,0.00
2018-07-04T07:10:03.878Z,0.00
2018-07-04T07:11:03.965Z,0.00
2018-07-04T07:12:04.238Z,0.00
2018-07-04T07:13:03.989Z,0.00
2018-07-04T07:14:04.041Z,0.00
2018-07-04T07:15:04.079Z,0.00
2018-07-04T07:16:04.178Z,0.00
2018-07-04T07:17:04.159Z,0.00
2018-07-04T07:18:04.213Z,0.00
2018-07-04T07:19:04.248Z,0.00
2018-07-04T07:20:04.309Z,0.00
2018-07-04T07:21:04.410Z,0.00
2018-07-04T07:22:04.432Z,0.00
2018-07-04T07:23:04.613Z,0.00
2018-07-04T07:24:04.469Z,0.00
2018-07-04T07:25:04.507Z,0.00
2018-07-04T07:26:04.554Z,0.00
2018-07-04T07:27:04.611Z,0.00
2018-07-04T07:28:04.631Z,0.00
2018-07-04T07:29:04.687Z,0.00
2018-07-04T07:30:04.723Z,0.00
2018-07-04T07:31:04.753Z,0.00
2018-07-04T07:32:04.862Z,0.00
2018-07-04T07:33:04.887Z,0.00
2018-07-04T07:34:05.163Z,0.00
2018-07-04T07:35:04.953Z,0.00
2018-07-04T07:36:05.010Z,0.00
2018-07-04T07:37:05.041Z,0.00
2018-07-04T07:38:05.080Z,0.00
2018-07-04T07:39:05.134Z,0.00
2018-07-04T07:40:05.141Z,0.00
2018-07-04T07:41:05.228Z,0.00
2018-07-04T07:42:05.307Z,0.00
2018-07-04T07:43:05.286Z,0.00
2018-07-04T07:44:05.337Z,0.00
2018-07-04T07:45:05.392Z,0.00
2018-07-04T07:46:05.667Z,0.00
2018-07-04T07:47:05.468Z,0.00
2018-07-04T07:48:05.492Z,0.00
2018-07-04T07:49:05.555Z,0.00
2018-07-04T07:50:05.586Z,0.00
2018-07-04T07:51:05.632Z,0.00
2018-07-04T07:52:05.655Z,0.00
2018-07-04T07:53:05.721Z,0.00
2018-07-04T07:54:05.829Z,0.00
2018-07-04T07:55:05.799Z,0.00
2018-07-04T07:56:05.838Z,0.00
2018-07-04T07:57:05.901Z,0.00
2018-07-04T07:58:06.152Z,0.00
2018-07-04T07:59:05.994Z,0.00
2018-07-04T08:00:06.033Z,0.00
2018-07-04T08:01:06.093Z,0.00
2018-07-04T08:02:06.137Z,0.00
2018-07-04T08:03:06.145Z,0.00
2018-07-04T08:04:06.207Z,0.00
2018-07-04T08:05:06.210Z,0.00
2018-07-04T08:06:06.283Z,0.00
2018-07-04T08:07:06.321Z,0.00
2018-07-04T08:08:06.422Z,0.00
2018-07-04T08:09:06.593Z,0.00
2018-07-04T08:10:06.466Z,0.00
2018-07-04T08:11:06.492Z,0.00
2018-07-04T08:12:06.570Z,0.00
2018-07-04T08:13:06.609Z,0.00
2018-07-04T08:14:06.612Z,0.00
2018-07-04T08:15:06.683Z,0.00
2018-07-04T08:16:06.699Z,0.00
2018-07-04T08:17:06.741Z,0.00
2018-07-04T08:18:06.802Z,0.00
2018-07-04T08:19:06.842Z,0.00
2018-07-04T08:20:07.097Z,0.00
2018-07-04T08:21:06.913Z,0.00
2018-07-04T08:22:06.977Z,0.00
2018-07-04T08:23:07.017Z,0.00
2018-07-04T08:24:07.072Z,0.00
2018-07-04T08:25:07.088Z,0.00
2018-07-04T08:26:07.132Z,0.00
2018-07-04T08:27:07.202Z,0.00
2018-07-04T08:28:07.248Z,0.00
2018-07-04T08:29:07.281Z,0.00
2018-07-04T08:30:07.363Z,0.00
2018-07-04T08:31:07.376Z,0.00
2018-07-04T08:32:07.398Z,0.00
2018-07-04T08:33:07.494Z,0.00
2018-07-04T08:34:07.478Z,0.00
2018-07-04T08:35:07.530Z,0.00
2018-07-04T08:36:07.830Z,0.00
2018-07-04T08:37:07.617Z,0.00
2018-07-04T08:38:07.654Z,0.00
2018-07-04T08:39:07.719Z,0.00
2018-07-04T08:40:07.741Z,0.00
2018-07-04T08:41:07.788Z,0.00
2018-07-04T08:42:07.842Z,0.00
2018-07-04T08:43:07.886Z,0.00
2018-07-04T08:44:07.943Z,0.00
2018-07-04T08:45:07.963Z,0.00
2018-07-04T08:46:07.999Z,0.00
2018-07-04T08:47:08.050Z,0.00
2018-07-04T08:48:08.296Z,0.00
2018-07-04T08:49:08.150Z,0.00
2018-07-04T08:50:08.185Z,0.00
2018-07-04T08:51:08.232Z,0.00
2018-07-04T08:52:08.289Z,0.00
2018-07-04T08:53:08.316Z,0.00
2018-07-04T08:54:08.348Z,0.00
2018-07-04T08:55:08.387Z,0.00
2018-07-04T08:56:08.491Z,0.00
2018-07-04T08:57:08.521Z,0.00
2018-07-04T08:58:08.518Z,0.00
2018-07-04T08:59:08.579Z,0.00
2018-07-04T09:00:08.814Z,0.00
2018-07-04T09:01:08.665Z,0.00
2018-07-04T09:02:08.689Z,0.00
2018-07-04T09:03:08.759Z,0.00
2018-07-04T09:04:08.785Z,0.00
2018-07-04T09:05:08.839Z,0.00
2018-07-04T09:06:08.897Z,0.00
2018-07-04T09:07:08.943Z,0.00
2018-07-04T09:08:08.973Z,0.00
2018-07-04T09:09:09.017Z,0.00
2018-07-04T09:10:09.048Z,0.00
2018-07-04T09:11:09.321Z,0.00
2018-07-04T09:12:09.135Z,0.00
2018-07-04T09:13:09.184Z,0.00
2018-07-04T09:14:09.278Z,0.00
2018-07-04T09:15:09.288Z,0.00
2018-07-04T09:16:09.314Z,0.00
2018-07-04T09:17:09.401Z,0.00
2018-07-04T09:18:09.394Z,0.00
2018-07-04T09:19:09.455Z,0.00
2018-07-04T09:20:09.540Z,0.00
2018-07-04T09:21:09.516Z,0.00
2018-07-04T09:22:09.578Z,0.00
2018-07-04T09:23:09.805Z,0.00
2018-07-04T09:24:09.661Z,0.00
2018-07-04T09:25:09.728Z,4.00
2018-07-04T09:26:09.751Z,0.00
2018-07-04T09:27:09.811Z,4.00
2018-07-04T09:28:09.824Z,4.00
2018-07-04T09:29:09.878Z,4.00
2018-07-04T09:30:09.932Z,4.00
2018-07-04T09:31:09.957Z,8.00
2018-07-04T09:32:10.008Z,12.00
2018-07-04T09:33:10.047Z,16.00
2018-07-04T09:34:10.079Z,16.00
2018-07-04T09:35:10.342Z,20.00
2018-07-04T09:36:10.178Z,28.00
2018-07-04T09:37:10.214Z,36.00
2018-07-04T09:38:10.294Z,44.00
2018-07-04T09:39:10.321Z,56.00
2018-07-04T09:40:10.331Z,72.00
2018-07-04T09:41:10.395Z,84.00
2018-07-04T09:42:10.459Z,104.00
2018-07-04T09:43:10.472Z,120.00
2018-07-04T09:44:10.550Z,144.00
2018-07-04T09:45:10.579Z,168.00
2018-07-04T09:46:10.605Z,212.00
2018-07-04T09:47:10.860Z,244.00
2018-07-04T09:48:10.702Z,288.00
2018-07-04T09:49:10.738Z,344.00
2018-07-04T09:50:10.806Z,376.00
2018-07-04T09:51:10.850Z,392.00
2018-07-04T09:52:10.871Z,436.00
2018-07-04T09:53:10.909Z,452.00
2018-07-04T09:54:10.971Z,488.00
2018-07-04T09:55:11.035Z,576.00
2018-07-04T09:56:11.066Z,632.00
2018-07-04T09:57:11.137Z,688.00
2018-07-04T09:58:11.124Z,756.00
2018-07-04T09:59:11.167Z,820.00
2018-07-04T10:00:11.210Z,892.00
2018-07-04T10:01:11.243Z,904.00
2018-07-04T10:02:11.295Z,1020.00
2018-07-04T10:03:11.322Z,1124.00
2018-07-04T10:04:11.392Z,1224.00
2018-07-04T10:05:11.430Z,1188.00
2018-07-04T10:06:11.477Z,1152.00
2018-07-04T10:07:11.523Z,1152.00
2018-07-04T10:08:11.566Z,1244.00
2018-07-04T10:09:11.789Z,1284.00
2018-07-04T10:10:11.646Z,1224.00
2018-07-04T10:11:11.672Z,1268.00
2018-07-04T10:12:11.716Z,1372.00
2018-07-04T10:13:11.786Z,1536.00
2018-07-04T10:14:11.796Z,1592.00
2018-07-04T10:15:11.860Z,1644.00
2018-07-04T10:16:11.906Z,1616.00
2018-07-04T10:17:11.946Z,1508.00
2018-07-04T10:18:11.972Z,1612.00
2018-07-04T10:19:12.015Z,1820.00
2018-07-04T10:20:12.308Z,1980.00
2018-07-04T10:21:12.104Z,1928.00
2018-07-04T10:22:12.178Z,1936.00
2018-07-04T10:23:12.200Z,1940.00
2018-07-04T10:24:12.222Z,1968.00
2018-07-04T10:25:12.315Z,2068.00
2018-07-04T10:26:12.332Z,2172.00
2018-07-04T10:27:12.391Z,2208.00
2018-07-04T10:28:12.412Z,2360.00
2018-07-04T10:29:12.470Z,2444.00
2018-07-04T10:30:12.512Z,2268.00
2018-07-04T10:31:12.555Z,2184.00
2018-07-04T10:32:12.597Z,2392.00
2018-07-04T10:33:12.628Z,2572.00
2018-07-04T10:34:12.665Z,2880.00
2018-07-04T10:35:12.722Z,3308.00
2018-07-04T10:36:12.755Z,3368.00
2018-07-04T10:37:12.873Z,3068.00
2018-07-04T10:38:12.854Z,3004.00
2018-07-04T10:39:12.909Z,3092.00
2018-07-04T10:40:12.934Z,3100.00
2018-07-04T10:41:12.991Z,3060.00
2018-07-04T10:42:13.017Z,3008.00
2018-07-04T10:43:13.052Z,3036.00
2018-07-04T10:44:13.130Z,3028.00
2018-07-04T10:45:13.175Z,2860.00
2018-07-04T10:46:13.203Z,2740.00
2018-07-04T10:47:13.288Z,2724.00
2018-07-04T10:48:13.311Z,2848.00
2018-07-04T10:49:13.348Z,2988.00
2018-07-04T10:50:13.424Z,3076.00
2018-07-04T10:51:13.428Z,3072.00
2018-07-04T10:52:13.472Z,3252.00
2018-07-04T10:53:13.491Z,3208.00
2018-07-04T10:54:13.574Z,3244.00
2018-07-04T10:55:13.599Z,3132.00
2018-07-04T10:56:13.632Z,3040.00
2018-07-04T10:57:13.686Z,2964.00
2018-07-04T10:58:13.730Z,3148.00
2018-07-04T10:59:13.784Z,3492.00
2018-07-04T11:00:13.824Z,3532.00
2018-07-04T11:01:13.855Z,3572.00
2018-07-04T11:02:13.960Z,3796.00
2018-07-04T11:03:13.923Z,3604.00
2018-07-04T11:04:14.014Z,3676.00
2018-07-04T11:05:14.036Z,3572.00
2018-07-04T11:06:14.062Z,3876.00
2018-07-04T11:07:14.127Z,3428.00
2018-07-04T11:08:14.190Z,3528.00
2018-07-04T11:09:14.221Z,3216.00
2018-07-04T11:10:14.264Z,3304.00
2018-07-04T11:11:14.434Z,3684.00
2018-07-04T11:12:14.344Z,4156.00
2018-07-04T11:13:14.429Z,4580.00
2018-07-04T11:14:14.419Z,4388.00
2018-07-04T11:15:14.458Z,4460.00
2018-07-04T11:16:14.516Z,4788.00
2018-07-04T11:17:14.579Z,5736.00
2018-07-04T11:18:14.619Z,5996.00
2018-07-04T11:19:14.640Z,6596.00
2018-07-04T11:20:14.684Z,6484.00
2018-07-04T11:21:14.769Z,5784.00
2018-07-04T11:22:14.801Z,6192.00
2018-07-04T11:23:14.822Z,7020.00
2018-07-04T11:24:14.884Z,8012.00
2018-07-04T11:25:14.953Z,5056.00
2018-07-04T11:26:14.958Z,4180.00
2018-07-04T11:27:15.009Z,3616.00
2018-07-04T11:28:15.096Z,3916.00
2018-07-04T11:29:15.090Z,3832.00
2018-07-04T11:30:15.141Z,3840.00
2018-07-04T11:31:15.211Z,4496.00
2018-07-04T11:32:15.233Z,4248.00
2018-07-04T11:33:15.245Z,5500.00
2018-07-04T11:34:15.328Z,6088.00
2018-07-04T11:35:15.377Z,6240.00
2018-07-04T11:36:15.455Z,4972.00
2018-07-04T11:37:15.430Z,3804.00
2018-07-04T11:38:15.528Z,4260.00
2018-07-04T11:39:15.533Z,4808.00
2018-07-04T11:40:15.604Z,4788.00
2018-07-04T11:41:15.641Z,5648.00
2018-07-04T11:42:15.669Z,6956.00
2018-07-04T11:43:15.694Z,7920.00
2018-07-04T11:44:15.751Z,9168.00
2018-07-04T11:45:15.775Z,8828.00
2018-07-04T11:46:15.842Z,11212.00
2018-07-04T11:47:15.864Z,9644.00
2018-07-04T11:48:15.915Z,10228.00
2018-07-04T11:49:15.998Z,19328.00
2018-07-04T11:50:16.000Z,17248.00
2018-07-04T11:51:16.067Z,19360.00
2018-07-04T11:52:16.111Z,19392.00
2018-07-04T11:53:16.193Z,21216.00
2018-07-04T11:54:16.215Z,37408.00
2018-07-04T11:55:16.329Z,28416.00
2018-07-04T11:56:16.267Z,15528.00
2018-07-04T11:57:16.319Z,15764.00
2018-07-04T11:58:16.393Z,14040.00
2018-07-04T11:59:16.433Z,13224.00
2018-07-04T12:00:16.483Z,12084.00
2018-07-04T12:01:16.515Z,12220.00
2018-07-04T12:02:16.530Z,12592.00
2018-07-04T12:03:16.592Z,14028.00
2018-07-04T12:04:16.657Z,15104.00
2018-07-04T12:05:16.713Z,15280.00
2018-07-04T12:06:16.738Z,16064.00
2018-07-04T12:07:16.830Z,15372.00
2018-07-04T12:08:16.838Z,16016.00
2018-07-04T12:09:16.860Z,16712.00
2018-07-04T12:10:16.968Z,17536.00
2018-07-04T12:11:16.959Z,15748.00
2018-07-04T12:12:17.011Z,16016.00
2018-07-04T12:13:17.067Z,17696.00
2018-07-04T12:14:17.104Z,18048.00
2018-07-04T12:15:17.129Z,18112.00
2018-07-04T12:16:17.198Z,18720.00
2018-07-04T12:17:17.248Z,19520.00
2018-07-04T12:18:17.299Z,19392.00
2018-07-04T12:19:17.341Z,21152.00
2018-07-04T12:20:17.369Z,21152.00
2018-07-04T12:21:17.412Z,19200.00
2018-07-04T12:22:17.565Z,19328.00
2018-07-04T12:23:17.514Z,21696.00
2018-07-04T12:24:17.591Z,46272.00
2018-07-04T12:25:17.628Z,31744.00
2018-07-04T12:26:17.686Z,19808.00
2018-07-04T12:27:17.716Z,19584.00
2018-07-04T12:28:17.753Z,21632.00
2018-07-04T12:29:17.788Z,42848.00
2018-07-04T12:30:17.863Z,28864.00
2018-07-04T12:31:17.881Z,37888.00
2018-07-04T12:32:17.988Z,28640.00
2018-07-04T12:33:17.971Z,22720.00
2018-07-04T12:34:18.043Z,18912.00
2018-07-04T12:35:18.066Z,22560.00
2018-07-04T12:36:18.146Z,21792.00
2018-07-04T12:37:18.171Z,30112.00
2018-07-04T12:38:18.227Z,34464.00
2018-07-04T12:39:18.246Z,23104.00
2018-07-04T12:40:18.404Z,25888.00
2018-07-04T12:41:18.335Z,25024.00
2018-07-04T12:42:18.423Z,67072.00
2018-07-04T12:43:18.505Z,39296.00
2018-07-04T12:44:18.510Z,35232.00
2018-07-04T12:45:18.559Z,60896.00
2018-07-04T12:46:18.601Z,25088.00
2018-07-04T12:47:18.664Z,22496.00
2018-07-04T12:48:18.698Z,21376.00
2018-07-04T12:49:18.728Z,22048.00
2018-07-04T12:50:18.821Z,22592.00
2018-07-04T12:51:18.841Z,22688.00
2018-07-04T12:52:18.892Z,22976.00
2018-07-04T12:53:18.933Z,25760.00
2018-07-04T12:54:19.190Z,23008.00
2018-07-04T12:55:19.027Z,18112.00
2018-07-04T12:56:19.082Z,19040.00
2018-07-04T12:57:19.146Z,18912.00